Time;durP1;ratioP1;P1;durP2;ratioP2;P2;SDS_P1;SDS_P2;PMS_P1;PMS_P2;Temp;Humidity;BMP_temperature;BMP_pressure;BME280_temperature;BME280_humidity;BME280_pressure;Samples;Min_cycle;Max_cycle;Signal;HPM_P1;HPM_P2
2023/03/06 00:01:04;;;;;;;14.50;6.65;;;6.30;99.40;;;;;;10139806;28;20514;-60
2023/03/06 00:05:59;;;;;;;16.05;6.78;;;6.30;99.30;;;;;;10141550;28;20222;-61
2023/03/06 00:10:50;;;;;;;15.45;6.45;;;6.30;99.40;;;;;;10139853;28;20059;-62
2023/03/06 00:15:41;;;;;;;14.90;7.47;;;6.30;99.40;;;;;;10140078;28;20020;-61
2023/03/06 00:20:33;;;;;;;16.30;7.55;;;6.30;99.40;;;;;;10139621;28;20035;-61
2023/03/06 00:25:24;;;;;;;14.40;7.28;;;6.30;99.50;;;;;;10138424;28;20035;-61
2023/03/06 00:30:18;;;;;;;13.43;6.32;;;6.20;99.50;;;;;;10139879;28;20024;-62
2023/03/06 00:35:10;;;;;;;12.93;7.38;;;6.30;99.50;;;;;;10139400;28;20044;-60
2023/03/06 00:40:00;;;;;;;14.52;6.93;;;6.10;99.60;;;;;;10138903;28;20025;-62
2023/03/06 00:44:51;;;;;;;15.65;6.95;;;6.20;99.60;;;;;;10139379;28;20406;-60
2023/03/06 00:49:43;;;;;;;11.70;6.63;;;6.20;99.60;;;;;;10139130;28;20040;-61
2023/03/06 00:54:34;;;;;;;11.95;6.75;;;6.10;99.60;;;;;;10138351;28;20059;-59
2023/03/06 00:59:26;;;;;;;11.40;7.15;;;6.10;99.70;;;;;;10143487;28;20056;-61
2023/03/06 01:04:17;;;;;;;12.07;6.18;;;6.10;99.70;;;;;;10141516;28;20036;-64
2023/03/06 01:09:07;;;;;;;15.00;6.75;;;6.00;99.80;;;;;;10138496;28;20503;-62
2023/03/06 01:13:58;;;;;;;12.00;6.85;;;6.00;99.80;;;;;;10138426;28;20433;-61
2023/03/06 01:18:49;;;;;;;14.40;6.78;;;6.10;99.70;;;;;;10138368;28;20029;-61
2023/03/06 01:23:40;;;;;;;15.55;6.95;;;6.20;99.70;;;;;;10139886;28;20116;-60
2023/03/06 01:28:32;;;;;;;13.48;7.32;;;6.10;99.80;;;;;;10145672;28;20078;-60
2023/03/06 01:33:23;;;;;;;12.95;7.13;;;5.90;99.90;;;;;;10145758;28;20359;-62
2023/03/06 01:38:14;;;;;;;13.77;8.07;;;5.90;99.90;;;;;;10144971;28;20048;-60
2023/03/06 01:43:25;;;;;;;16.65;8.48;;;5.90;99.90;;;;;;10144569;28;20390;-61
2023/03/06 01:48:18;;;;;;;19.25;8.35;;;5.90;99.90;;;;;;10145010;28;20020;-60
2023/03/06 01:53:10;;;;;;;21.73;9.75;;;5.80;99.90;;;;;;10144425;28;20025;-60
2023/03/06 01:58:05;;;;;;;22.67;9.60;;;5.70;99.90;;;;;;10148944;28;20013;-61
2023/03/06 02:03:05;;;;;;;20.13;9.60;;;5.80;99.90;;;;;;10128817;28;20486;-62
2023/03/06 02:07:57;;;;;;;19.20;9.10;;;5.80;99.90;;;;;;10143765;28;20511;-62
2023/03/06 02:12:49;;;;;;;19.05;8.75;;;5.90;99.90;;;;;;10144223;28;20024;-62
2023/03/06 02:17:43;;;;;;;17.60;8.30;;;6.00;99.90;;;;;;10143132;28;20425;-60
2023/03/06 02:22:42;;;;;;;20.08;8.10;;;5.90;99.90;;;;;;10143922;28;20424;-61
2023/03/06 02:27:33;;;;;;;18.38;8.60;;;5.90;99.90;;;;;;10143832;28;20027;-63
2023/03/06 02:32:23;;;;;;;18.92;9.65;;;5.80;99.90;;;;;;10143245;28;20032;-62
2023/03/06 02:37:14;;;;;;;19.75;9.32;;;5.80;99.90;;;;;;10141903;28;20050;-60
2023/03/06 02:42:05;;;;;;;16.67;8.98;;;5.70;99.90;;;;;;10141183;28;20032;-62
2023/03/06 02:46:55;;;;;;;16.60;8.80;;;5.80;99.90;;;;;;10142542;28;20364;-61
2023/03/06 02:51:46;;;;;;;17.13;8.02;;;5.80;99.90;;;;;;10142782;28;20111;-64
2023/03/06 02:56:37;;;;;;;13.90;7.90;;;5.90;99.90;;;;;;10147568;28;20023;-62
2023/03/06 03:01:27;;;;;;;21.67;8.05;;;5.90;99.90;;;;;;10143226;28;20036;-61
2023/03/06 03:06:18;;;;;;;15.30;7.47;;;5.90;99.90;;;;;;10141733;28;20025;-62
2023/03/06 03:11:09;;;;;;;18.35;7.60;;;5.90;99.90;;;;;;10141563;28;20021;-62
2023/03/06 03:16:09;;;;;;;15.68;8.23;;;5.90;99.90;;;;;;10140659;28;20065;-62
2023/03/06 03:21:00;;;;;;;14.98;7.05;;;5.90;99.90;;;;;;10141009;28;20500;-61
2023/03/06 03:25:52;;;;;;;20.75;9.25;;;5.80;99.90;;;;;;10139712;28;20111;-61
2023/03/06 03:30:42;;;;;;;15.35;7.10;;;5.80;99.90;;;;;;10136411;28;20493;-62
2023/03/06 03:35:33;;;;;;;15.00;6.97;;;5.70;99.90;;;;;;10138077;28;20306;-62
2023/03/06 03:40:24;;;;;;;13.65;7.28;;;5.70;99.90;;;;;;10139855;28;20032;-62
2023/03/06 03:45:14;;;;;;;15.82;8.15;;;5.80;99.90;;;;;;10140750;28;20044;-61
2023/03/06 03:50:07;;;;;;;16.77;7.32;;;5.80;99.90;;;;;;10138615;28;20111;-62
2023/03/06 03:54:58;;;;;;;17.48;7.82;;;5.70;99.90;;;;;;10139849;28;20027;-60
2023/03/06 03:59:48;;;;;;;14.63;7.05;;;5.60;99.90;;;;;;10140198;28;20025;-61
2023/03/06 04:04:39;;;;;;;14.35;6.85;;;5.70;99.90;;;;;;10138674;28;20044;-61
2023/03/06 04:09:30;;;;;;;11.52;6.82;;;5.70;99.90;;;;;;10135869;28;20020;-62
2023/03/06 04:14:20;;;;;;;16.08;6.85;;;5.60;99.90;;;;;;10139178;28;20040;-62
2023/03/06 04:19:11;;;;;;;10.40;5.65;;;5.70;99.90;;;;;;10139631;28;20021;-62
2023/03/06 04:24:02;;;;;;;18.08;8.32;;;5.60;99.90;;;;;;10139239;28;20040;-60
2023/03/06 04:28:54;;;;;;;10.85;5.88;;;5.60;99.90;;;;;;10139470;28;20585;-61
2023/03/06 04:33:45;;;;;;;11.27;5.43;;;5.60;99.90;;;;;;10139359;28;20045;-60
2023/03/06 04:38:36;;;;;;;12.18;6.05;;;5.60;99.90;;;;;;10139189;28;20438;-62
2023/03/06 04:43:26;;;;;;;12.45;5.50;;;5.50;99.90;;;;;;10138584;28;20564;-61
2023/03/06 04:48:17;;;;;;;11.65;6.85;;;5.60;99.90;;;;;;10137999;28;20071;-61
2023/03/06 04:53:09;;;;;;;14.63;6.68;;;5.60;99.90;;;;;;10138748;28;20024;-61
2023/03/06 04:58:00;;;;;;;14.50;7.22;;;5.50;99.90;;;;;;10144454;28;20044;-60
2023/03/06 05:02:51;;;;;;;14.70;7.03;;;5.40;99.90;;;;;;10148313;28;20454;-62
2023/03/06 05:07:42;;;;;;;20.15;8.98;;;5.40;99.90;;;;;;10144367;28;20052;-60
2023/03/06 05:12:36;;;;;;;12.15;7.68;;;5.40;99.90;;;;;;10145740;28;20505;-61
2023/03/06 05:17:26;;;;;;;13.43;7.03;;;5.40;99.90;;;;;;10145489;28;20052;-62
2023/03/06 05:22:17;;;;;;;17.48;7.53;;;5.40;99.90;;;;;;10145948;28;20398;-61
2023/03/06 05:27:08;;;;;;;13.65;6.65;;;5.50;99.90;;;;;;10145651;28;20115;-62
2023/03/06 05:31:58;;;;;;;12.13;6.57;;;5.30;99.90;;;;;;10145221;28;20029;-61
2023/03/06 05:36:49;;;;;;;16.98;7.60;;;5.30;99.90;;;;;;10144876;28;20041;-63
2023/03/06 05:41:39;;;;;;;14.95;7.05;;;5.20;99.90;;;;;;10144762;28;20040;-60
2023/03/06 05:46:30;;;;;;;14.45;6.85;;;5.30;99.90;;;;;;10145188;28;20024;-61
2023/03/06 05:51:21;;;;;;;13.35;7.20;;;5.40;99.90;;;;;;10144404;28;20031;-60
2023/03/06 05:56:12;;;;;;;18.95;7.40;;;5.40;99.90;;;;;;10149004;28;20456;-62
2023/03/06 06:01:10;;;;;;;14.77;6.68;;;5.40;99.90;;;;;;10143722;28;20048;-61
2023/03/06 06:06:05;;;;;;;13.20;6.55;;;5.40;99.90;;;;;;10142549;28;20036;-60
2023/03/06 06:10:56;;;;;;;11.17;7.33;;;5.50;99.90;;;;;;10141627;28;20123;-62
2023/03/06 06:15:47;;;;;;;14.65;7.53;;;5.30;99.90;;;;;;10142530;28;20124;-62
2023/03/06 06:20:37;;;;;;;11.32;6.05;;;5.30;99.90;;;;;;10143104;28;20036;-61
2023/03/06 06:25:28;;;;;;;16.27;7.85;;;5.40;99.90;;;;;;10143443;28;20047;-62
2023/03/06 06:30:19;;;;;;;16.40;8.00;;;5.40;99.90;;;;;;10143869;28;20148;-63
2023/03/06 06:35:10;;;;;;;14.38;7.38;;;5.40;99.90;;;;;;10143446;28;20128;-62
2023/03/06 06:40:00;;;;;;;14.00;6.55;;;5.50;99.90;;;;;;10142897;28;20024;-61
2023/03/06 06:44:51;;;;;;;20.58;9.63;;;5.50;99.90;;;;;;10142802;28;20039;-61
2023/03/06 06:49:41;;;;;;;13.45;6.25;;;5.40;99.90;;;;;;10142669;28;20104;-63
2023/03/06 06:54:33;;;;;;;18.75;6.03;;;5.40;99.90;;;;;;10142966;28;20032;-60
2023/03/06 06:59:24;;;;;;;15.60;7.18;;;5.30;99.90;;;;;;10144133;28;20082;-61
2023/03/06 07:04:15;;;;;;;12.80;7.45;;;5.30;99.90;;;;;;10145107;28;20149;-60
2023/03/06 07:09:06;;;;;;;19.33;8.55;;;5.40;99.90;;;;;;10120814;28;20483;-62
2023/03/06 07:13:56;;;;;;;12.65;5.97;;;5.40;99.90;;;;;;10140605;28;20040;-61
2023/03/06 07:18:47;;;;;;;15.00;6.95;;;5.40;99.90;;;;;;10141017;28;20081;-62
2023/03/06 07:23:38;;;;;;;17.58;7.47;;;5.40;99.90;;;;;;10141375;28;20048;-60
2023/03/06 07:28:29;;;;;;;18.20;8.02;;;5.40;99.90;;;;;;10124164;28;20031;-57
2023/03/06 07:33:20;;;;;;;18.92;6.68;;;5.50;99.90;;;;;;10135435;28;20024;-59
2023/03/06 07:38:10;;;;;;;16.08;8.23;;;5.60;99.90;;;;;;10139500;28;20024;-52
2023/03/06 07:43:01;;;;;;;13.45;6.55;;;5.50;99.90;;;;;;10138485;28;20673;-62
2023/03/06 07:47:52;;;;;;;13.73;7.70;;;5.60;99.90;;;;;;10139411;28;20403;-61
2023/03/06 07:52:43;;;;;;;16.77;7.53;;;5.80;99.90;;;;;;10139950;28;20032;-61
2023/03/06 07:57:35;;;;;;;14.10;7.35;;;5.70;99.90;;;;;;10140154;28;20035;-60
2023/03/06 08:02:26;;;;;;;12.63;6.20;;;5.70;99.90;;;;;;10134800;28;20285;-60
2023/03/06 08:07:16;;;;;;;16.40;7.63;;;5.70;99.90;;;;;;10139568;28;20281;-60
2023/03/06 08:12:07;;;;;;;17.50;6.20;;;5.70;99.90;;;;;;10138250;28;20024;-61
2023/03/06 08:16:58;;;;;;;13.10;6.70;;;5.70;99.90;;;;;;10139532;28;20425;-62
2023/03/06 08:21:48;;;;;;;14.20;7.75;;;5.80;99.90;;;;;;10139471;28;20036;-60
2023/03/06 08:26:39;;;;;;;11.77;6.30;;;5.90;99.90;;;;;;10139287;28;20498;-58
2023/03/06 08:31:37;;;;;;;13.07;6.95;;;5.90;99.90;;;;;;10138893;28;20024;-59
2023/03/06 08:36:28;;;;;;;13.73;6.80;;;5.90;99.90;;;;;;10144205;28;20052;-58
2023/03/06 08:41:19;;;;;;;14.18;6.85;;;6.00;99.90;;;;;;10146139;28;20037;-56
2023/03/06 08:46:13;;;;;;;14.35;8.10;;;6.00;99.90;;;;;;10146098;28;20031;-58
2023/03/06 08:51:04;;;;;;;11.43;6.28;;;6.00;99.90;;;;;;10145584;28;20043;-55
2023/03/06 08:55:55;;;;;;;15.32;7.90;;;6.10;99.90;;;;;;10142472;28;20028;-55
2023/03/06 09:00:46;;;;;;;14.40;7.45;;;6.30;99.90;;;;;;10144795;28;20032;-57
2023/03/06 09:05:39;;;;;;;12.88;7.00;;;6.30;99.90;;;;;;10144198;28;20074;-58
2023/03/06 09:10:29;;;;;;;18.33;7.80;;;6.40;99.90;;;;;;10144965;28;20016;-56
2023/03/06 09:15:21;;;;;;;19.98;7.50;;;6.40;99.90;;;;;;10144907;28;20107;-60
2023/03/06 09:20:13;;;;;;;13.80;7.13;;;6.30;99.90;;;;;;10144089;28;20040;-56
2023/03/06 09:25:05;;;;;;;14.93;6.50;;;6.40;99.90;;;;;;10144365;28;20641;-61
2023/03/06 09:29:56;;;;;;;16.38;6.53;;;6.40;99.90;;;;;;10144266;28;20051;-62
2023/03/06 09:34:47;;;;;;;17.00;7.75;;;6.50;99.90;;;;;;10143761;28;20044;-60
2023/03/06 09:39:37;;;;;;;12.75;6.47;;;6.60;99.90;;;;;;10144018;28;20028;-61
2023/03/06 09:44:32;;;;;;;10.30;6.70;;;6.50;99.90;;;;;;10142578;28;20444;-62
2023/03/06 09:49:37;;;;;;;17.00;7.55;;;6.60;99.90;;;;;;10143703;28;20017;-61
2023/03/06 09:54:57;;;;;;;14.37;7.13;;;6.50;99.90;;;;;;10143104;28;20035;-58
2023/03/06 09:59:55;;;;;;;11.95;5.43;;;6.70;99.90;;;;;;10137391;28;20378;-59
2023/03/06 10:04:54;;;;;;;8.20;4.43;;;6.50;99.90;;;;;;10142708;28;20090;-60
2023/03/06 10:09:55;;;;;;;12.85;6.10;;;6.70;99.90;;;;;;10141783;28;20090;-57
2023/03/06 10:15:15;;;;;;;12.18;5.97;;;6.70;99.90;;;;;;10141534;28;20471;-58
2023/03/06 10:20:17;;;;;;;8.30;5.40;;;7.00;99.90;;;;;;10141940;28;20088;-56
2023/03/06 10:25:17;;;;;;;11.38;5.57;;;7.20;99.90;;;;;;10135383;22;20057;-67
2023/03/06 10:30:41;;;;;;;7.47;4.45;;;7.10;99.90;;;;;;10088607;28;20029;-65
2023/03/06 10:35:52;;;;;;;9.85;5.22;;;7.00;99.90;;;;;;10089018;28;20029;-66
2023/03/06 10:40:53;;;;;;;11.60;5.65;;;6.90;99.90;;;;;;10090829;28;20391;-68
2023/03/06 10:45:50;;;;;;;10.73;4.53;;;7.00;99.90;;;;;;10084906;28;20465;-70
2023/03/06 10:50:40;;;;;;;13.15;5.65;;;7.20;99.90;;;;;;10090394;28;20014;-65
2023/03/06 10:55:36;;;;;;;9.55;4.63;;;7.40;99.90;;;;;;10086618;28;20052;-69
2023/03/06 11:00:36;;;;;;;8.82;4.10;;;7.60;99.90;;;;;;10091262;28;20009;-66
2023/03/06 11:05:27;;;;;;;10.00;4.70;;;7.80;99.90;;;;;;10085495;28;20083;-68
2023/03/06 11:10:19;;;;;;;13.90;5.85;;;7.90;99.90;;;;;;10084863;28;20021;-70
2023/03/06 11:15:22;;;;;;;11.60;4.78;;;7.70;99.90;;;;;;10088875;28;20021;-66
2023/03/06 11:20:39;;;;;;;10.30;4.72;;;7.60;99.90;;;;;;10081725;28;20036;-67
2023/03/06 11:25:37;;;;;;;6.72;4.35;;;7.60;99.90;;;;;;10082724;28;20124;-65
2023/03/06 11:30:41;;;;;;;7.40;3.85;;;7.60;99.90;;;;;;10086761;28;20502;-68
2023/03/06 11:35:46;;;;;;;10.02;4.68;;;7.50;99.90;;;;;;10083662;28;20025;-64
2023/03/06 11:40:52;;;;;;;10.73;4.60;;;7.50;99.80;;;;;;10099882;28;20025;-64
2023/03/06 11:45:57;;;;;;;7.13;4.38;;;7.40;99.70;;;;;;10101026;28;20567;-66
2023/03/06 11:50:54;;;;;;;11.38;4.78;;;7.70;99.50;;;;;;10081099;28;20049;-67
2023/03/06 11:56:06;;;;;;;10.13;5.00;;;7.80;99.40;;;;;;10089866;28;20123;-67
2023/03/06 12:01:21;;;;;;;7.05;3.75;;;7.80;99.40;;;;;;10098413;28;20036;-66
2023/03/06 12:06:38;;;;;;;7.47;4.43;;;7.60;99.30;;;;;;10086413;28;20119;-67
2023/03/06 12:12:01;;;;;;;8.82;4.45;;;7.70;99.20;;;;;;10095101;28;20102;-67
2023/03/06 12:17:10;;;;;;;11.13;3.80;;;7.70;99.60;;;;;;10032122;28;20452;-67
2023/03/06 12:22:22;;;;;;;10.40;4.43;;;7.80;99.20;;;;;;10089475;28;20040;-66
2023/03/06 12:27:52;;;;;;;7.97;4.05;;;7.90;99.10;;;;;;10095276;28;20048;-67
2023/03/06 12:33:03;;;;;;;7.25;2.78;;;7.90;99.00;;;;;;10053946;28;20039;-68
2023/03/06 12:38:15;;;;;;;7.78;3.47;;;7.50;98.70;;;;;;10066125;28;20072;-69
2023/03/06 12:43:30;;;;;;;6.78;3.45;;;7.30;98.90;;;;;;10089966;28;20036;-68
2023/03/06 12:48:24;;;;;;;6.45;3.90;;;7.20;98.70;;;;;;10094767;28;20025;-69
2023/03/06 12:53:27;;;;;;;8.63;3.15;;;7.00;98.60;;;;;;10094156;28;20037;-71
2023/03/06 12:58:33;;;;;;;7.50;3.80;;;7.10;98.60;;;;;;10092265;28;20129;-68
2023/03/06 13:03:29;;;;;;;7.93;4.35;;;7.00;98.50;;;;;;10093563;28;20029;-70
2023/03/06 13:08:26;;;;;;;9.95;4.28;;;7.00;98.50;;;;;;10091685;28;20021;-68
2023/03/06 13:13:32;;;;;;;6.05;3.47;;;7.00;98.50;;;;;;10090541;28;20036;-69
2023/03/06 13:18:22;;;;;;;9.18;4.15;;;6.90;98.60;;;;;;10089218;28;20044;-67
2023/03/06 13:23:29;;;;;;;6.55;2.45;;;6.80;98.80;;;;;;10097738;28;20025;-70
2023/03/06 13:28:43;;;;;;;7.55;3.58;;;7.00;98.90;;;;;;10098167;28;20029;-69
2023/03/06 13:33:36;;;;;;;7.18;3.95;;;7.10;98.90;;;;;;10102473;28;20013;-69
2023/03/06 13:38:56;;;;;;;8.02;4.18;;;7.20;98.80;;;;;;10100018;28;20021;-68
2023/03/06 13:43:50;;;;;;;11.77;4.75;;;7.20;98.80;;;;;;10082620;28;20482;-68
2023/03/06 13:48:42;;;;;;;11.18;5.32;;;7.10;98.90;;;;;;10096736;28;20021;-69
2023/03/06 13:54:00;;;;;;;11.65;5.70;;;7.20;98.90;;;;;;10091233;28;20112;-68
2023/03/06 13:59:02;;;;;;;9.38;5.13;;;7.20;98.80;;;;;;10096948;28;20032;-67
2023/03/06 14:04:09;;;;;;;11.55;6.03;;;7.20;98.90;;;;;;10095772;28;20021;-68
2023/03/06 14:09:05;;;;;;;8.73;4.63;;;7.20;98.80;;;;;;10095230;28;20491;-67
2023/03/06 14:13:57;;;;;;;9.52;4.82;;;7.20;98.70;;;;;;10094866;28;20040;-66
2023/03/06 14:18:54;;;;;;;11.70;5.78;;;7.10;98.80;;;;;;10097399;28;20291;-65
2023/03/06 14:23:46;;;;;;;10.43;5.80;;;6.90;98.80;;;;;;10095224;28;20063;-64
2023/03/06 14:28:42;;;;;;;11.48;5.53;;;6.60;98.90;;;;;;10097722;28;20052;-71
2023/03/06 14:33:51;;;;;;;13.40;5.70;;;6.60;99.00;;;;;;10096787;28;20031;-68
2023/03/06 14:39:07;;;;;;;47.08;21.38;;;6.50;99.20;;;;;;10088780;28;20037;-68
2023/03/06 14:44:21;;;;;;;15.45;6.10;;;6.60;99.20;;;;;;10090267;28;20049;-65
2023/03/06 14:49:16;;;;;;;10.15;5.20;;;6.50;99.10;;;;;;10093446;28;20104;-65
2023/03/06 14:54:17;;;;;;;8.10;4.22;;;6.40;99.30;;;;;;10091425;28;20028;-68
2023/03/06 14:59:12;;;;;;;11.55;5.35;;;6.30;99.40;;;;;;10094653;28;20025;-68
2023/03/06 15:04:16;;;;;;;9.25;4.68;;;6.30;99.60;;;;;;10094200;28;20029;-68
2023/03/06 15:09:34;;;;;;;10.38;5.40;;;6.40;99.60;;;;;;10094064;28;20219;-68
2023/03/06 15:14:40;;;;;;;7.90;4.65;;;6.50;99.60;;;;;;10091730;28;20037;-66
2023/03/06 15:19:39;;;;;;;10.77;5.27;;;6.60;99.60;;;;;;10088238;28;20020;-67
2023/03/06 15:24:33;;;;;;;9.50;5.05;;;6.60;99.50;;;;;;10089098;28;20047;-68
2023/03/06 15:29:26;;;;;;;9.73;4.78;;;6.50;99.60;;;;;;10093187;28;20395;-66
2023/03/06 15:34:22;;;;;;;9.38;5.38;;;6.40;99.70;;;;;;10093765;28;20047;-66
2023/03/06 15:39:34;;;;;;;10.85;5.60;;;6.40;99.70;;;;;;10087953;28;20025;-67
2023/03/06 15:44:27;;;;;;;9.65;4.45;;;6.30;99.70;;;;;;10086261;28;20552;-65
2023/03/06 15:49:18;;;;;;;10.35;5.47;;;6.30;99.60;;;;;;10093719;28;20399;-66
2023/03/06 15:54:09;;;;;;;13.50;5.63;;;6.30;99.60;;;;;;10092270;28;20017;-65
2023/03/06 15:59:00;;;;;;;10.25;4.13;;;6.20;99.50;;;;;;10089213;28;20400;-66
2023/03/06 16:03:51;;;;;;;8.73;4.93;;;6.20;99.60;;;;;;10091592;28;20040;-63
2023/03/06 16:08:41;;;;;;;10.93;5.15;;;6.30;99.50;;;;;;10090964;28;20613;-68
2023/03/06 16:13:32;;;;;;;9.10;4.88;;;6.20;99.50;;;;;;10092962;28;20035;-66
2023/03/06 16:18:23;;;;;;;10.27;4.82;;;6.20;99.50;;;;;;10088398;28;20032;-68
2023/03/06 16:23:15;;;;;;;9.38;4.50;;;6.20;99.40;;;;;;10088445;28;20029;-70
2023/03/06 16:28:13;;;;;;;9.82;4.35;;;6.20;99.40;;;;;;10091764;28;20391;-66
2023/03/06 16:33:06;;;;;;;8.52;3.97;;;6.20;99.50;;;;;;10091600;28;20020;-68
2023/03/06 16:37:58;;;;;;;11.43;4.85;;;6.30;99.40;;;;;;10085785;28;20033;-66
2023/03/06 16:42:50;;;;;;;8.27;4.55;;;6.30;99.40;;;;;;10089084;28;20457;-68
2023/03/06 16:47:43;;;;;;;10.00;4.68;;;6.20;99.50;;;;;;10089797;28;20092;-63
2023/03/06 16:52:33;;;;;;;10.70;5.60;;;6.20;99.50;;;;;;10081986;28;20470;-66
2023/03/06 16:57:24;;;;;;;14.40;6.40;;;6.20;99.40;;;;;;10088482;28;20036;-66
2023/03/06 17:02:15;;;;;;;32.97;14.10;;;6.10;99.60;;;;;;10091656;28;20048;-64
2023/03/06 17:07:05;;;;;;;13.65;7.43;;;6.30;99.40;;;;;;10095779;28;20021;-68
2023/03/06 17:11:56;;;;;;;15.20;5.38;;;6.30;99.40;;;;;;10100134;28;20033;-66
2023/03/06 17:16:47;;;;;;;11.48;6.05;;;6.20;99.50;;;;;;10093157;28;20075;-65
2023/03/06 17:21:38;;;;;;;21.73;8.25;;;6.10;99.50;;;;;;10088364;28;20124;-65
2023/03/06 17:26:28;;;;;;;9.95;5.00;;;6.10;99.50;;;;;;10088029;28;20064;-66
2023/03/06 17:31:22;;;;;;;10.60;5.60;;;6.10;99.50;;;;;;10096816;28;20166;-66
2023/03/06 17:36:14;;;;;;;7.82;4.45;;;6.10;99.50;;;;;;10099989;28;20025;-67
2023/03/06 17:41:08;;;;;;;9.50;5.85;;;6.10;99.40;;;;;;10098181;28;20063;-65
2023/03/06 17:46:06;;;;;;;8.93;4.50;;;6.10;99.40;;;;;;10097781;28;20025;-67
2023/03/06 17:50:58;;;;;;;12.40;5.32;;;6.00;99.40;;;;;;10095177;28;20632;-67
2023/03/06 17:55:49;;;;;;;11.27;4.93;;;6.10;99.40;;;;;;10092701;28;20028;-66
2023/03/06 18:00:43;;;;;;;9.10;4.93;;;6.00;99.30;;;;;;10084700;28;20025;-68
2023/03/06 18:05:34;;;;;;;10.85;5.20;;;6.00;99.30;;;;;;10083903;28;20033;-65
2023/03/06 18:10:25;;;;;;;64.00;26.98;;;6.00;99.30;;;;;;10097424;28;20560;-64
2023/03/06 18:15:16;;;;;;;30.35;16.05;;;6.10;99.20;;;;;;10099572;28;20269;-69
2023/03/06 18:20:07;;;;;;;26.45;14.15;;;6.30;99.00;;;;;;10094103;28;20033;-61
2023/03/06 18:24:58;;;;;;;11.77;6.28;;;6.40;98.90;;;;;;10096050;28;20150;-66
2023/03/06 18:29:51;;;;;;;11.38;5.20;;;6.20;98.90;;;;;;10099433;28;20044;-69
2023/03/06 18:34:41;;;;;;;13.20;6.28;;;6.10;99.10;;;;;;10100078;28;20064;-72
2023/03/06 18:39:32;;;;;;;12.10;5.70;;;6.00;99.10;;;;;;10090516;28;20168;-68
2023/03/06 18:44:23;;;;;;;10.77;5.90;;;6.00;99.00;;;;;;10078878;28;20040;-66
2023/03/06 18:49:15;;;;;;;8.48;4.65;;;6.00;99.00;;;;;;10090869;28;20100;-67
2023/03/06 18:54:06;;;;;;;9.45;4.72;;;6.00;98.90;;;;;;10085650;28;20033;-66
2023/03/06 18:59:01;;;;;;;12.68;5.93;;;6.00;98.80;;;;;;10081482;28;20063;-66
2023/03/06 19:03:52;;;;;;;10.27;6.43;;;6.00;98.80;;;;;;10071267;28;20112;-67
2023/03/06 19:08:42;;;;;;;10.63;4.32;;;6.00;98.70;;;;;;10092144;28;20112;-67
2023/03/06 19:13:33;;;;;;;10.93;5.10;;;6.00;98.70;;;;;;10088148;28;20087;-67
2023/03/06 19:18:25;;;;;;;13.75;5.43;;;6.00;98.60;;;;;;10085955;28;20017;-67
2023/03/06 19:23:16;;;;;;;10.57;5.28;;;6.00;98.60;;;;;;10083409;28;20406;-66
2023/03/06 19:28:07;;;;;;;9.23;4.47;;;6.00;98.60;;;;;;10081238;28;20121;-66
2023/03/06 19:32:58;;;;;;;8.75;5.18;;;6.00;98.60;;;;;;10090269;28;20033;-67
2023/03/06 19:37:49;;;;;;;9.07;5.53;;;6.00;98.50;;;;;;10083771;28;20128;-67
2023/03/06 19:42:39;;;;;;;10.68;5.22;;;6.00;98.60;;;;;;10087957;28;20037;-66
2023/03/06 19:47:30;;;;;;;9.27;4.40;;;6.00;98.50;;;;;;10090128;28;20036;-67
2023/03/06 19:52:23;;;;;;;10.15;5.88;;;6.00;98.60;;;;;;10084200;28;20491;-67
2023/03/06 19:57:14;;;;;;;9.20;5.65;;;6.00;98.60;;;;;;10087632;28;20112;-66
2023/03/06 20:02:05;;;;;;;12.40;6.30;;;6.10;98.60;;;;;;10076255;28;20147;-65
2023/03/06 20:06:56;;;;;;;11.13;5.53;;;6.00;98.60;;;;;;10078243;28;20033;-68
2023/03/06 20:11:46;;;;;;;17.73;7.20;;;6.00;98.70;;;;;;10088175;28;20482;-67
2023/03/06 20:16:40;;;;;;;10.40;6.57;;;6.10;98.60;;;;;;10092076;28;20446;-71
2023/03/06 20:21:36;;;;;;;14.07;6.80;;;5.90;98.70;;;;;;10085449;28;20033;-71
2023/03/06 20:26:28;;;;;;;12.73;6.40;;;6.00;98.80;;;;;;10087218;28;20123;-66
2023/03/06 20:31:21;;;;;;;13.00;6.47;;;5.90;98.70;;;;;;10090522;28;20017;-62
2023/03/06 20:36:17;;;;;;;14.05;6.10;;;6.00;98.80;;;;;;10090235;28;20246;-66
2023/03/06 20:41:25;;;;;;;7.95;4.25;;;6.00;98.80;;;;;;10089344;28;20521;-68
2023/03/06 20:46:17;;;;;;;12.10;6.72;;;5.90;98.90;;;;;;10091643;28;20025;-65
2023/03/06 20:51:16;;;;;;;10.38;5.57;;;6.00;98.90;;;;;;10086770;28;20096;-66
2023/03/06 20:56:14;;;;;;;14.23;4.68;;;5.90;98.90;;;;;;10081878;28;20275;-68
2023/03/06 21:01:04;;;;;;;10.02;5.28;;;6.00;98.90;;;;;;10083916;28;20063;-69
2023/03/06 21:06:04;;;;;;;10.32;5.65;;;5.90;98.90;;;;;;10089079;28;20056;-69
2023/03/06 21:10:54;;;;;;;9.40;5.65;;;5.90;99.00;;;;;;10098221;28;20083;-66
2023/03/06 21:15:46;;;;;;;15.52;7.05;;;6.00;99.00;;;;;;10090658;28;20079;-66
2023/03/06 21:20:38;;;;;;;10.68;5.97;;;5.90;99.00;;;;;;10086617;28;20033;-67
2023/03/06 21:25:29;;;;;;;11.77;5.45;;;6.00;99.00;;;;;;10089899;28;20052;-65
2023/03/06 21:30:19;;;;;;;11.35;5.57;;;6.00;98.90;;;;;;10085988;28;20021;-67
2023/03/06 21:35:10;;;;;;;9.27;5.18;;;5.90;99.10;;;;;;10092445;28;20024;-66
2023/03/06 21:40:01;;;;;;;8.50;5.00;;;5.80;99.00;;;;;;10090552;28;20017;-67
2023/03/06 21:44:52;;;;;;;12.15;5.35;;;5.90;99.10;;;;;;10092170;28;20025;-65
2023/03/06 21:49:42;;;;;;;10.35;4.90;;;5.90;99.00;;;;;;10093210;28;20035;-68
2023/03/06 21:54:33;;;;;;;11.43;5.40;;;5.90;99.10;;;;;;10090666;28;20021;-68
2023/03/06 21:59:24;;;;;;;9.55;5.30;;;5.90;99.00;;;;;;10085376;28;20029;-67
2023/03/06 22:04:14;;;;;;;9.73;4.32;;;5.90;99.00;;;;;;10092992;28;21115;-66
2023/03/06 22:09:06;;;;;;;13.95;4.50;;;5.90;99.00;;;;;;10094737;28;20041;-66
2023/03/06 22:13:56;;;;;;;43.60;20.17;;;5.90;99.10;;;;;;10088867;28;20277;-64
2023/03/06 22:18:50;;;;;;;23.65;9.85;;;6.00;98.90;;;;;;10085250;28;20071;-68
2023/03/06 22:23:41;;;;;;;10.65;5.65;;;6.00;98.90;;;;;;10087541;28;20137;-66
2023/03/06 22:28:32;;;;;;;12.90;6.20;;;5.80;99.00;;;;;;10080052;28;20452;-66
2023/03/06 22:33:22;;;;;;;13.25;5.32;;;5.80;99.00;;;;;;10091599;28;20150;-67
2023/03/06 22:38:14;;;;;;;8.88;5.05;;;5.80;99.00;;;;;;10096728;28;20113;-67
2023/03/06 22:43:05;;;;;;;9.25;4.30;;;5.90;99.00;;;;;;10089804;28;20044;-68
2023/03/06 22:47:56;;;;;;;11.73;5.60;;;5.90;98.90;;;;;;10092811;28;20029;-67
2023/03/06 22:52:46;;;;;;;10.15;6.00;;;5.80;99.00;;;;;;10088528;28;20499;-66
2023/03/06 22:57:37;;;;;;;9.23;4.60;;;5.80;98.90;;;;;;10089072;28;20506;-65
2023/03/06 23:02:37;;;;;;;10.10;4.80;;;5.80;99.00;;;;;;10076622;28;20045;-66
2023/03/06 23:07:28;;;;;;;10.32;5.18;;;5.90;99.00;;;;;;10088769;28;20029;-67
2023/03/06 23:12:18;;;;;;;10.93;4.18;;;5.90;99.00;;;;;;10094039;28;20025;-66
2023/03/06 23:17:09;;;;;;;14.00;4.93;;;5.80;98.90;;;;;;10082128;28;20029;-66
2023/03/06 23:22:00;;;;;;;12.30;4.78;;;5.80;98.90;;;;;;10087494;28;20526;-66
2023/03/06 23:26:50;;;;;;;11.23;5.53;;;5.80;98.90;;;;;;10099724;28;20045;-68
2023/03/06 23:31:41;;;;;;;9.95;4.68;;;5.90;98.80;;;;;;10099850;28;20534;-66
2023/03/06 23:36:32;;;;;;;10.55;4.78;;;5.80;98.80;;;;;;10100133;28;20482;-68
2023/03/06 23:41:23;;;;;;;7.85;4.55;;;5.80;98.80;;;;;;10098966;28;20120;-66
2023/03/06 23:46:15;;;;;;;12.27;4.70;;;5.70;98.80;;;;;;10099304;28;20118;-65
2023/03/06 23:51:17;;;;;;;7.75;4.10;;;5.80;98.90;;;;;;10088188;28;20025;-65
2023/03/06 23:56:08;;;;;;;12.75;4.07;;;5.80;98.80;;;;;;10090209;28;20112;-66
